sensor_id;sensor_type;location;lat;lon;timestamp;P1;durP1;ratioP1;P2;durP2;ratioP2
63379;SDS011;53160;55.014;73.156;2022-12-07T00:01:24;40.40;;;37.40;;
63379;SDS011;53160;55.014;73.156;2022-12-07T00:03:57;48.20;;;37.40;;
63379;SDS011;53160;55.014;73.156;2022-12-07T00:06:26;43.00;;;34.60;;
63379;SDS011;53160;55.014;73.156;2022-12-07T00:08:52;44.60;;;37.20;;
63379;SDS011;53160;55.014;73.156;2022-12-07T00:11:28;35.80;;;26.20;;
63379;SDS011;53160;55.014;73.156;2022-12-07T00:13:58;40.20;;;30.00;;
63379;SDS011;53160;55.014;73.156;2022-12-07T00:16:26;45.40;;;37.40;;
63379;SDS011;53160;55.014;73.156;2022-12-07T00:18:52;43.00;;;34.60;;
63379;SDS011;53160;55.014;73.156;2022-12-07T00:21:22;39.60;;;30.00;;
63379;SDS011;53160;55.014;73.156;2022-12-07T00:23:54;23.20;;;17.60;;
63379;SDS011;53160;55.014;73.156;2022-12-07T00:26:30;44.60;;;36.20;;
63379;SDS011;53160;55.014;73.156;2022-12-07T00:29:00;50.80;;;40.60;;
63379;SDS011;53160;55.014;73.156;2022-12-07T00:31:32;49.00;;;42.20;;
63379;SDS011;53160;55.014;73.156;2022-12-07T00:34:00;22.20;;;12.80;;
63379;SDS011;53160;55.014;73.156;2022-12-07T00:36:27;28.20;;;22.80;;
63379;SDS011;53160;55.014;73.156;2022-12-07T00:38:54;44.40;;;33.60;;
63379;SDS011;53160;55.014;73.156;2022-12-07T00:41:21;39.40;;;31.00;;
63379;SDS011;53160;55.014;73.156;2022-12-07T00:43:48;39.20;;;33.20;;
63379;SDS011;53160;55.014;73.156;2022-12-07T00:46:24;43.40;;;35.40;;
63379;SDS011;53160;55.014;73.156;2022-12-07T00:49:00;49.20;;;38.40;;
63379;SDS011;53160;55.014;73.156;2022-12-07T00:51:26;43.40;;;36.60;;
63379;SDS011;53160;55.014;73.156;2022-12-07T00:53:56;41.80;;;32.20;;
63379;SDS011;53160;55.014;73.156;2022-12-07T00:56:28;48.20;;;38.20;;
63379;SDS011;53160;55.014;73.156;2022-12-07T00:58:56;55.40;;;41.20;;
63379;SDS011;53160;55.014;73.156;2022-12-07T01:01:23;35.20;;;29.00;;
63379;SDS011;53160;55.014;73.156;2022-12-07T01:03:49;37.40;;;28.60;;
63379;SDS011;53160;55.014;73.156;2022-12-07T01:06:25;32.60;;;21.60;;
63379;SDS011;53160;55.014;73.156;2022-12-07T01:08:51;48.00;;;37.60;;
63379;SDS011;53160;55.014;73.156;2022-12-07T01:11:19;45.60;;;35.20;;
63379;SDS011;53160;55.014;73.156;2022-12-07T01:13:50;28.80;;;22.80;;
63379;SDS011;53160;55.014;73.156;2022-12-07T01:16:16;40.80;;;36.40;;
63379;SDS011;53160;55.014;73.156;2022-12-07T01:18:45;47.00;;;36.60;;
63379;SDS011;53160;55.014;73.156;2022-12-07T01:21:15;55.80;;;44.80;;
63379;SDS011;53160;55.014;73.156;2022-12-07T01:23:42;29.40;;;23.40;;
63379;SDS011;53160;55.014;73.156;2022-12-07T01:26:11;37.00;;;30.20;;
63379;SDS011;53160;55.014;73.156;2022-12-07T01:28:38;47.60;;;39.00;;
63379;SDS011;53160;55.014;73.156;2022-12-07T01:31:05;50.60;;;37.60;;
63379;SDS011;53160;55.014;73.156;2022-12-07T01:33:32;50.80;;;42.20;;
63379;SDS011;53160;55.014;73.156;2022-12-07T01:36:03;23.20;;;19.80;;
63379;SDS011;53160;55.014;73.156;2022-12-07T01:38:30;46.40;;;40.00;;
63379;SDS011;53160;55.014;73.156;2022-12-07T01:40:57;45.20;;;36.40;;
63379;SDS011;53160;55.014;73.156;2022-12-07T01:43:29;49.40;;;43.20;;
63379;SDS011;53160;55.014;73.156;2022-12-07T01:46:01;51.80;;;43.60;;
63379;SDS011;53160;55.014;73.156;2022-12-07T01:48:30;50.80;;;39.40;;
63379;SDS011;53160;55.014;73.156;2022-12-07T01:51:09;51.00;;;40.80;;
63379;SDS011;53160;55.014;73.156;2022-12-07T01:53:37;54.40;;;44.00;;
63379;SDS011;53160;55.014;73.156;2022-12-07T01:56:04;46.40;;;44.40;;
63379;SDS011;53160;55.014;73.156;2022-12-07T01:58:38;41.00;;;32.60;;
63379;SDS011;53160;55.014;73.156;2022-12-07T02:01:04;44.40;;;30.20;;
63379;SDS011;53160;55.014;73.156;2022-12-07T02:03:32;58.80;;;42.60;;
63379;SDS011;53160;55.014;73.156;2022-12-07T02:06:00;31.60;;;26.40;;
63379;SDS011;53160;55.014;73.156;2022-12-07T02:08:27;43.00;;;38.60;;
63379;SDS011;53160;55.014;73.156;2022-12-07T02:10:53;18.60;;;15.20;;
63379;SDS011;53160;55.014;73.156;2022-12-07T02:13:25;45.80;;;36.80;;
63379;SDS011;53160;55.014;73.156;2022-12-07T02:18:44;46.60;;;36.00;;
63379;SDS011;53160;55.014;73.156;2022-12-07T02:29:22;75.40;;;53.60;;
63379;SDS011;53160;55.014;73.156;2022-12-07T02:34:44;47.40;;;40.40;;
63379;SDS011;53160;55.014;73.156;2022-12-07T02:37:33;48.20;;;38.20;;
63379;SDS011;53160;55.014;73.156;2022-12-07T02:40:03;43.60;;;40.60;;
63379;SDS011;53160;55.014;73.156;2022-12-07T02:42:33;47.80;;;33.40;;
63379;SDS011;53160;55.014;73.156;2022-12-07T02:45:01;50.60;;;43.20;;
63379;SDS011;53160;55.014;73.156;2022-12-07T02:47:27;46.40;;;36.60;;
63379;SDS011;53160;55.014;73.156;2022-12-07T02:49:55;63.80;;;43.80;;
63379;SDS011;53160;55.014;73.156;2022-12-07T02:52:21;58.80;;;45.20;;
63379;SDS011;53160;55.014;73.156;2022-12-07T02:54:47;43.60;;;39.00;;
63379;SDS011;53160;55.014;73.156;2022-12-07T02:57:21;55.80;;;42.00;;
63379;SDS011;53160;55.014;73.156;2022-12-07T03:02:33;46.40;;;39.20;;
63379;SDS011;53160;55.014;73.156;2022-12-07T03:10:13;53.20;;;39.20;;
63379;SDS011;53160;55.014;73.156;2022-12-07T03:18:06;65.40;;;47.60;;
63379;SDS011;53160;55.014;73.156;2022-12-07T03:20:33;47.20;;;36.00;;
63379;SDS011;53160;55.014;73.156;2022-12-07T03:23:08;45.00;;;39.80;;
63379;SDS011;53160;55.014;73.156;2022-12-07T03:25:37;28.00;;;26.00;;
63379;SDS011;53160;55.014;73.156;2022-12-07T03:28:06;26.60;;;21.40;;
63379;SDS011;53160;55.014;73.156;2022-12-07T03:30:36;44.20;;;39.60;;
63379;SDS011;53160;55.014;73.156;2022-12-07T03:33:12;50.40;;;41.40;;
63379;SDS011;53160;55.014;73.156;2022-12-07T03:35:48;31.00;;;20.40;;
63379;SDS011;53160;55.014;73.156;2022-12-07T03:38:19;70.40;;;50.60;;
63379;SDS011;53160;55.014;73.156;2022-12-07T03:40:48;68.40;;;49.00;;
63379;SDS011;53160;55.014;73.156;2022-12-07T03:43:16;115.75;;;79.50;;
63379;SDS011;53160;55.014;73.156;2022-12-07T03:45:44;132.67;;;84.67;;
63379;SDS011;53160;55.014;73.156;2022-12-07T03:48:22;232.50;;;141.75;;
63379;SDS011;53160;55.014;73.156;2022-12-07T03:50:58;146.25;;;104.00;;
63379;SDS011;53160;55.014;73.156;2022-12-07T03:53:35;118.25;;;72.25;;
63379;SDS011;53160;55.014;73.156;2022-12-07T03:56:03;119.00;;;79.00;;
63379;SDS011;53160;55.014;73.156;2022-12-07T03:58:30;105.75;;;77.75;;
63379;SDS011;53160;55.014;73.156;2022-12-07T04:00:56;106.00;;;72.75;;
63379;SDS011;53160;55.014;73.156;2022-12-07T04:03:22;147.75;;;96.75;;
63379;SDS011;53160;55.014;73.156;2022-12-07T04:05:49;102.25;;;77.75;;
63379;SDS011;53160;55.014;73.156;2022-12-07T04:08:15;109.75;;;76.25;;
63379;SDS011;53160;55.014;73.156;2022-12-07T04:10:51;90.50;;;66.25;;
63379;SDS011;53160;55.014;73.156;2022-12-07T04:13:17;60.00;;;48.80;;
63379;SDS011;53160;55.014;73.156;2022-12-07T04:15:43;46.80;;;45.00;;
63379;SDS011;53160;55.014;73.156;2022-12-07T04:18:09;38.80;;;30.40;;
63379;SDS011;53160;55.014;73.156;2022-12-07T04:20:35;32.60;;;26.80;;
63379;SDS011;53160;55.014;73.156;2022-12-07T04:23:02;48.40;;;40.00;;
63379;SDS011;53160;55.014;73.156;2022-12-07T04:25:28;40.60;;;31.60;;
63379;SDS011;53160;55.014;73.156;2022-12-07T04:27:55;47.20;;;39.60;;
63379;SDS011;53160;55.014;73.156;2022-12-07T04:30:26;45.80;;;37.20;;
63379;SDS011;53160;55.014;73.156;2022-12-07T04:32:52;43.00;;;40.20;;
63379;SDS011;53160;55.014;73.156;2022-12-07T04:35:28;37.80;;;33.00;;
63379;SDS011;53160;55.014;73.156;2022-12-07T04:37:54;36.60;;;34.00;;
63379;SDS011;53160;55.014;73.156;2022-12-07T04:40:20;43.40;;;31.20;;
63379;SDS011;53160;55.014;73.156;2022-12-07T04:42:46;51.40;;;42.20;;
63379;SDS011;53160;55.014;73.156;2022-12-07T04:45:17;96.50;;;70.75;;
63379;SDS011;53160;55.014;73.156;2022-12-07T04:47:43;100.00;;;65.00;;
63379;SDS011;53160;55.014;73.156;2022-12-07T04:50:09;48.80;;;42.00;;
63379;SDS011;53160;55.014;73.156;2022-12-07T04:52:36;24.80;;;18.60;;
63379;SDS011;53160;55.014;73.156;2022-12-07T04:55:02;67.40;;;50.00;;
63379;SDS011;53160;55.014;73.156;2022-12-07T04:57:28;35.80;;;32.60;;
63379;SDS011;53160;55.014;73.156;2022-12-07T04:59:56;40.40;;;31.60;;
63379;SDS011;53160;55.014;73.156;2022-12-07T05:02:22;28.20;;;22.20;;
63379;SDS011;53160;55.014;73.156;2022-12-07T05:04:48;33.00;;;29.20;;
63379;SDS011;53160;55.014;73.156;2022-12-07T05:07:14;28.20;;;26.00;;
63379;SDS011;53160;55.014;73.156;2022-12-07T05:09:40;34.60;;;28.20;;
63379;SDS011;53160;55.014;73.156;2022-12-07T05:12:07;34.60;;;29.20;;
63379;SDS011;53160;55.014;73.156;2022-12-07T05:14:33;26.60;;;18.40;;
63379;SDS011;53160;55.014;73.156;2022-12-07T05:17:04;23.00;;;12.00;;
63379;SDS011;53160;55.014;73.156;2022-12-07T05:19:30;25.40;;;22.60;;
63379;SDS011;53160;55.014;73.156;2022-12-07T05:21:56;26.20;;;20.60;;
63379;SDS011;53160;55.014;73.156;2022-12-07T05:24:23;32.80;;;22.00;;
63379;SDS011;53160;55.014;73.156;2022-12-07T05:26:49;27.80;;;21.80;;
63379;SDS011;53160;55.014;73.156;2022-12-07T05:29:20;24.20;;;19.80;;
63379;SDS011;53160;55.014;73.156;2022-12-07T05:31:46;25.80;;;24.40;;
63379;SDS011;53160;55.014;73.156;2022-12-07T05:34:13;30.80;;;21.00;;
63379;SDS011;53160;55.014;73.156;2022-12-07T05:36:39;27.60;;;24.00;;
63379;SDS011;53160;55.014;73.156;2022-12-07T05:39:05;26.40;;;23.80;;
63379;SDS011;53160;55.014;73.156;2022-12-07T05:41:31;32.00;;;24.80;;
63379;SDS011;53160;55.014;73.156;2022-12-07T05:44:16;25.40;;;21.60;;
63379;SDS011;53160;55.014;73.156;2022-12-07T05:46:42;34.40;;;25.40;;
63379;SDS011;53160;55.014;73.156;2022-12-07T05:49:08;28.00;;;25.40;;
63379;SDS011;53160;55.014;73.156;2022-12-07T05:51:35;33.40;;;26.80;;
63379;SDS011;53160;55.014;73.156;2022-12-07T05:54:02;40.40;;;27.80;;
63379;SDS011;53160;55.014;73.156;2022-12-07T05:56:28;31.00;;;21.60;;
63379;SDS011;53160;55.014;73.156;2022-12-07T05:59:04;38.20;;;26.20;;
63379;SDS011;53160;55.014;73.156;2022-12-07T06:01:50;29.60;;;24.20;;
63379;SDS011;53160;55.014;73.156;2022-12-07T06:04:16;35.60;;;30.80;;
63379;SDS011;53160;55.014;73.156;2022-12-07T06:06:53;27.00;;;21.00;;
63379;SDS011;53160;55.014;73.156;2022-12-07T06:09:20;32.20;;;28.20;;
63379;SDS011;53160;55.014;73.156;2022-12-07T06:11:46;30.60;;;22.60;;
63379;SDS011;53160;55.014;73.156;2022-12-07T06:14:31;38.60;;;32.40;;
63379;SDS011;53160;55.014;73.156;2022-12-07T06:16:58;39.00;;;30.80;;
63379;SDS011;53160;55.014;73.156;2022-12-07T06:19:24;41.60;;;30.80;;
63379;SDS011;53160;55.014;73.156;2022-12-07T06:21:52;36.00;;;31.00;;
63379;SDS011;53160;55.014;73.156;2022-12-07T06:24:20;44.60;;;31.80;;
63379;SDS011;53160;55.014;73.156;2022-12-07T06:26:47;20.80;;;18.80;;
63379;SDS011;53160;55.014;73.156;2022-12-07T06:29:13;34.60;;;27.00;;
63379;SDS011;53160;55.014;73.156;2022-12-07T06:31:40;34.20;;;29.60;;
63379;SDS011;53160;55.014;73.156;2022-12-07T06:34:08;27.00;;;23.20;;
63379;SDS011;53160;55.014;73.156;2022-12-07T06:36:35;33.00;;;28.60;;
63379;SDS011;53160;55.014;73.156;2022-12-07T06:39:02;37.20;;;29.60;;
63379;SDS011;53160;55.014;73.156;2022-12-07T06:41:28;35.60;;;34.40;;
63379;SDS011;53160;55.014;73.156;2022-12-07T06:43:55;30.40;;;27.20;;
63379;SDS011;53160;55.014;73.156;2022-12-07T06:46:21;36.20;;;32.40;;
63379;SDS011;53160;55.014;73.156;2022-12-07T06:48:48;34.00;;;22.00;;
63379;SDS011;53160;55.014;73.156;2022-12-07T06:51:14;22.00;;;13.40;;
63379;SDS011;53160;55.014;73.156;2022-12-07T06:53:40;27.60;;;21.60;;
63379;SDS011;53160;55.014;73.156;2022-12-07T06:56:07;48.00;;;38.20;;
63379;SDS011;53160;55.014;73.156;2022-12-07T06:58:33;16.80;;;14.00;;
63379;SDS011;53160;55.014;73.156;2022-12-07T07:00:59;25.60;;;22.00;;
63379;SDS011;53160;55.014;73.156;2022-12-07T07:03:25;20.20;;;17.00;;
63379;SDS011;53160;55.014;73.156;2022-12-07T07:05:51;17.60;;;14.20;;
63379;SDS011;53160;55.014;73.156;2022-12-07T07:08:18;20.60;;;16.20;;
63379;SDS011;53160;55.014;73.156;2022-12-07T07:10:44;27.00;;;21.00;;
63379;SDS011;53160;55.014;73.156;2022-12-07T07:13:10;19.60;;;17.80;;
63379;SDS011;53160;55.014;73.156;2022-12-07T07:15:41;18.80;;;15.80;;
63379;SDS011;53160;55.014;73.156;2022-12-07T07:18:17;17.80;;;16.00;;
63379;SDS011;53160;55.014;73.156;2022-12-07T07:20:43;35.00;;;25.00;;
63379;SDS011;53160;55.014;73.156;2022-12-07T07:23:10;43.60;;;38.20;;
63379;SDS011;53160;55.014;73.156;2022-12-07T07:25:41;20.80;;;18.80;;
63379;SDS011;53160;55.014;73.156;2022-12-07T07:28:17;12.60;;;11.40;;
63379;SDS011;53160;55.014;73.156;2022-12-07T07:30:44;12.20;;;9.00;;
63379;SDS011;53160;55.014;73.156;2022-12-07T07:33:10;21.80;;;18.20;;
63379;SDS011;53160;55.014;73.156;2022-12-07T07:35:37;25.00;;;18.40;;
63379;SDS011;53160;55.014;73.156;2022-12-07T07:38:04;15.20;;;13.80;;
63379;SDS011;53160;55.014;73.156;2022-12-07T07:40:30;13.80;;;13.00;;
63379;SDS011;53160;55.014;73.156;2022-12-07T07:42:57;15.20;;;10.40;;
63379;SDS011;53160;55.014;73.156;2022-12-07T07:45:28;14.40;;;11.60;;
63379;SDS011;53160;55.014;73.156;2022-12-07T07:47:55;17.40;;;14.40;;
63379;SDS011;53160;55.014;73.156;2022-12-07T07:50:21;14.20;;;11.60;;
63379;SDS011;53160;55.014;73.156;2022-12-07T07:52:48;24.60;;;16.40;;
63379;SDS011;53160;55.014;73.156;2022-12-07T07:55:14;24.00;;;19.00;;
63379;SDS011;53160;55.014;73.156;2022-12-07T07:57:40;23.00;;;19.60;;
63379;SDS011;53160;55.014;73.156;2022-12-07T08:00:07;19.00;;;15.00;;
63379;SDS011;53160;55.014;73.156;2022-12-07T08:02:38;12.20;;;11.20;;
63379;SDS011;53160;55.014;73.156;2022-12-07T08:05:04;22.00;;;15.80;;
63379;SDS011;53160;55.014;73.156;2022-12-07T08:07:30;19.80;;;11.00;;
63379;SDS011;53160;55.014;73.156;2022-12-07T08:10:07;10.00;;;7.40;;
63379;SDS011;53160;55.014;73.156;2022-12-07T08:12:36;21.40;;;17.80;;
63379;SDS011;53160;55.014;73.156;2022-12-07T08:15:03;21.20;;;14.20;;
63379;SDS011;53160;55.014;73.156;2022-12-07T08:17:29;18.60;;;15.00;;
63379;SDS011;53160;55.014;73.156;2022-12-07T08:19:55;18.80;;;12.40;;
63379;SDS011;53160;55.014;73.156;2022-12-07T08:22:22;21.40;;;19.00;;
63379;SDS011;53160;55.014;73.156;2022-12-07T08:24:48;18.40;;;15.20;;
63379;SDS011;53160;55.014;73.156;2022-12-07T08:27:14;13.80;;;12.80;;
63379;SDS011;53160;55.014;73.156;2022-12-07T08:29:40;22.60;;;17.20;;
63379;SDS011;53160;55.014;73.156;2022-12-07T08:32:07;21.60;;;16.40;;
63379;SDS011;53160;55.014;73.156;2022-12-07T08:34:43;25.00;;;16.80;;
63379;SDS011;53160;55.014;73.156;2022-12-07T08:37:10;27.80;;;18.60;;
63379;SDS011;53160;55.014;73.156;2022-12-07T08:39:36;22.00;;;16.40;;
63379;SDS011;53160;55.014;73.156;2022-12-07T08:42:02;28.20;;;19.80;;
63379;SDS011;53160;55.014;73.156;2022-12-07T08:44:28;24.80;;;20.60;;
63379;SDS011;53160;55.014;73.156;2022-12-07T08:46:56;23.40;;;18.00;;
63379;SDS011;53160;55.014;73.156;2022-12-07T08:49:25;19.00;;;16.40;;
63379;SDS011;53160;55.014;73.156;2022-12-07T08:51:58;24.60;;;19.40;;
63379;SDS011;53160;55.014;73.156;2022-12-07T08:54:24;21.00;;;18.20;;
63379;SDS011;53160;55.014;73.156;2022-12-07T08:56:50;12.40;;;9.40;;
63379;SDS011;53160;55.014;73.156;2022-12-07T08:59:23;24.20;;;18.00;;
63379;SDS011;53160;55.014;73.156;2022-12-07T09:01:49;14.60;;;11.80;;
63379;SDS011;53160;55.014;73.156;2022-12-07T09:04:17;29.60;;;23.40;;
63379;SDS011;53160;55.014;73.156;2022-12-07T09:06:48;28.60;;;19.40;;
63379;SDS011;53160;55.014;73.156;2022-12-07T09:09:14;28.80;;;22.40;;
63379;SDS011;53160;55.014;73.156;2022-12-07T09:11:41;15.80;;;14.00;;
63379;SDS011;53160;55.014;73.156;2022-12-07T09:14:12;14.40;;;11.20;;
63379;SDS011;53160;55.014;73.156;2022-12-07T09:16:38;23.80;;;18.60;;
63379;SDS011;53160;55.014;73.156;2022-12-07T09:19:09;21.20;;;16.60;;
63379;SDS011;53160;55.014;73.156;2022-12-07T09:21:35;22.20;;;19.80;;
63379;SDS011;53160;55.014;73.156;2022-12-07T09:24:01;18.00;;;15.40;;
63379;SDS011;53160;55.014;73.156;2022-12-07T09:26:32;24.20;;;22.60;;
63379;SDS011;53160;55.014;73.156;2022-12-07T09:29:02;24.60;;;19.20;;
63379;SDS011;53160;55.014;73.156;2022-12-07T09:31:28;33.40;;;29.60;;
63379;SDS011;53160;55.014;73.156;2022-12-07T09:34:00;14.20;;;12.60;;
63379;SDS011;53160;55.014;73.156;2022-12-07T09:36:26;28.20;;;19.40;;
63379;SDS011;53160;55.014;73.156;2022-12-07T09:38:53;18.00;;;15.80;;
63379;SDS011;53160;55.014;73.156;2022-12-07T09:41:29;29.40;;;21.00;;
63379;SDS011;53160;55.014;73.156;2022-12-07T09:43:58;22.20;;;16.20;;
63379;SDS011;53160;55.014;73.156;2022-12-07T09:46:28;28.20;;;23.20;;
63379;SDS011;53160;55.014;73.156;2022-12-07T09:49:02;25.80;;;18.60;;
63379;SDS011;53160;55.014;73.156;2022-12-07T09:51:28;25.80;;;21.00;;
63379;SDS011;53160;55.014;73.156;2022-12-07T09:53:55;33.40;;;25.00;;
63379;SDS011;53160;55.014;73.156;2022-12-07T09:56:23;26.20;;;19.80;;
63379;SDS011;53160;55.014;73.156;2022-12-07T09:58:50;35.20;;;26.00;;
63379;SDS011;53160;55.014;73.156;2022-12-07T10:01:18;26.20;;;19.60;;
63379;SDS011;53160;55.014;73.156;2022-12-07T10:03:54;30.20;;;26.20;;
63379;SDS011;53160;55.014;73.156;2022-12-07T10:06:21;21.00;;;20.20;;
63379;SDS011;53160;55.014;73.156;2022-12-07T10:08:47;34.00;;;24.40;;
63379;SDS011;53160;55.014;73.156;2022-12-07T10:11:18;36.80;;;27.00;;
63379;SDS011;53160;55.014;73.156;2022-12-07T10:13:48;36.20;;;23.80;;
63379;SDS011;53160;55.014;73.156;2022-12-07T10:18:50;29.60;;;24.80;;
63379;SDS011;53160;55.014;73.156;2022-12-07T10:21:22;28.60;;;24.00;;
63379;SDS011;53160;55.014;73.156;2022-12-07T10:29:14;25.20;;;16.60;;
63379;SDS011;53160;55.014;73.156;2022-12-07T10:31:42;24.20;;;21.60;;
63379;SDS011;53160;55.014;73.156;2022-12-07T10:34:21;30.60;;;24.40;;
63379;SDS011;53160;55.014;73.156;2022-12-07T10:36:49;39.40;;;26.60;;
63379;SDS011;53160;55.014;73.156;2022-12-07T10:39:23;33.00;;;28.20;;
63379;SDS011;53160;55.014;73.156;2022-12-07T10:41:53;30.20;;;29.00;;
63379;SDS011;53160;55.014;73.156;2022-12-07T10:44:24;41.60;;;33.20;;
63379;SDS011;53160;55.014;73.156;2022-12-07T10:49:48;37.00;;;31.40;;
63379;SDS011;53160;55.014;73.156;2022-12-07T10:58:01;37.80;;;36.40;;
63379;SDS011;53160;55.014;73.156;2022-12-07T11:00:45;37.60;;;32.20;;
63379;SDS011;53160;55.014;73.156;2022-12-07T11:03:59;31.20;;;26.60;;
63379;SDS011;53160;55.014;73.156;2022-12-07T11:06:17;34.20;;;27.20;;
63379;SDS011;53160;55.014;73.156;2022-12-07T11:08:48;30.00;;;25.00;;
63379;SDS011;53160;55.014;73.156;2022-12-07T11:16:23;34.20;;;27.40;;
63379;SDS011;53160;55.014;73.156;2022-12-07T11:24:14;46.40;;;36.60;;
63379;SDS011;53160;55.014;73.156;2022-12-07T11:26:56;40.60;;;34.80;;
63379;SDS011;53160;55.014;73.156;2022-12-07T11:37:18;39.80;;;36.00;;
63379;SDS011;53160;55.014;73.156;2022-12-07T11:39:54;39.60;;;35.40;;
63379;SDS011;53160;55.014;73.156;2022-12-07T11:42:33;50.00;;;41.60;;
63379;SDS011;53160;55.014;73.156;2022-12-07T11:45:12;39.60;;;36.80;;
63379;SDS011;53160;55.014;73.156;2022-12-07T11:47:54;48.40;;;36.00;;
63379;SDS011;53160;55.014;73.156;2022-12-07T12:03:49;36.80;;;33.60;;
63379;SDS011;53160;55.014;73.156;2022-12-07T12:06:16;39.80;;;36.00;;
63379;SDS011;53160;55.014;73.156;2022-12-07T12:14:11;35.60;;;29.60;;
63379;SDS011;53160;55.014;73.156;2022-12-07T12:22:04;48.40;;;37.00;;
63379;SDS011;53160;55.014;73.156;2022-12-07T12:24:36;58.00;;;45.40;;
63379;SDS011;53160;55.014;73.156;2022-12-07T12:27:06;56.00;;;47.20;;
63379;SDS011;53160;55.014;73.156;2022-12-07T12:29:37;54.80;;;48.40;;
63379;SDS011;53160;55.014;73.156;2022-12-07T12:34:41;52.20;;;43.40;;
63379;SDS011;53160;55.014;73.156;2022-12-07T12:42:45;58.60;;;49.40;;
63379;SDS011;53160;55.014;73.156;2022-12-07T12:45:22;68.00;;;48.60;;
63379;SDS011;53160;55.014;73.156;2022-12-07T12:50:32;53.00;;;44.80;;
63379;SDS011;53160;55.014;73.156;2022-12-07T12:58:42;56.80;;;46.40;;
63379;SDS011;53160;55.014;73.156;2022-12-07T13:03:53;54.60;;;42.40;;
63379;SDS011;53160;55.014;73.156;2022-12-07T13:06:41;55.00;;;42.80;;
63379;SDS011;53160;55.014;73.156;2022-12-07T13:09:15;51.80;;;36.20;;
63379;SDS011;53160;55.014;73.156;2022-12-07T13:11:58;55.40;;;41.80;;
63379;SDS011;53160;55.014;73.156;2022-12-07T13:20:02;68.60;;;48.80;;
63379;SDS011;53160;55.014;73.156;2022-12-07T13:27:35;72.80;;;51.60;;
63379;SDS011;53160;55.014;73.156;2022-12-07T13:30:03;65.60;;;50.20;;
63379;SDS011;53160;55.014;73.156;2022-12-07T13:32:34;77.00;;;55.40;;
63379;SDS011;53160;55.014;73.156;2022-12-07T13:35:00;72.00;;;55.20;;
63379;SDS011;53160;55.014;73.156;2022-12-07T13:37:45;65.40;;;46.20;;
63379;SDS011;53160;55.014;73.156;2022-12-07T13:40:22;68.40;;;49.80;;
63379;SDS011;53160;55.014;73.156;2022-12-07T13:42:59;75.80;;;55.60;;
63379;SDS011;53160;55.014;73.156;2022-12-07T13:45:31;70.80;;;52.00;;
63379;SDS011;53160;55.014;73.156;2022-12-07T13:48:35;73.00;;;53.80;;
63379;SDS011;53160;55.014;73.156;2022-12-07T13:51:03;70.80;;;51.80;;
63379;SDS011;53160;55.014;73.156;2022-12-07T13:53:30;68.80;;;50.20;;
63379;SDS011;53160;55.014;73.156;2022-12-07T13:55:56;73.00;;;52.00;;
63379;SDS011;53160;55.014;73.156;2022-12-07T13:58:23;74.00;;;54.00;;
63379;SDS011;53160;55.014;73.156;2022-12-07T14:00:50;73.80;;;52.80;;
63379;SDS011;53160;55.014;73.156;2022-12-07T14:05:43;76.60;;;55.60;;
63379;SDS011;53160;55.014;73.156;2022-12-07T14:10:37;72.40;;;53.80;;
63379;SDS011;53160;55.014;73.156;2022-12-07T14:15:59;64.80;;;47.40;;
63379;SDS011;53160;55.014;73.156;2022-12-07T14:18:30;65.40;;;46.40;;
63379;SDS011;53160;55.014;73.156;2022-12-07T14:21:15;82.00;;;58.80;;
63379;SDS011;53160;55.014;73.156;2022-12-07T14:23:41;64.60;;;44.00;;
63379;SDS011;53160;55.014;73.156;2022-12-07T14:28:42;79.60;;;58.40;;
63379;SDS011;53160;55.014;73.156;2022-12-07T14:31:13;70.60;;;51.00;;
63379;SDS011;53160;55.014;73.156;2022-12-07T14:33:39;76.40;;;56.20;;
63379;SDS011;53160;55.014;73.156;2022-12-07T14:36:13;65.60;;;53.20;;
63379;SDS011;53160;55.014;73.156;2022-12-07T14:38:39;75.60;;;52.40;;
63379;SDS011;53160;55.014;73.156;2022-12-07T14:41:06;69.60;;;54.20;;
63379;SDS011;53160;55.014;73.156;2022-12-07T14:43:59;76.80;;;54.60;;
63379;SDS011;53160;55.014;73.156;2022-12-07T14:46:36;64.60;;;48.60;;
63379;SDS011;53160;55.014;73.156;2022-12-07T14:49:03;79.40;;;57.40;;
63379;SDS011;53160;55.014;73.156;2022-12-07T14:51:39;68.80;;;56.00;;
63379;SDS011;53160;55.014;73.156;2022-12-07T14:54:17;78.80;;;49.00;;
63379;SDS011;53160;55.014;73.156;2022-12-07T14:56:45;69.80;;;51.00;;
63379;SDS011;53160;55.014;73.156;2022-12-07T14:59:17;81.40;;;59.80;;
63379;SDS011;53160;55.014;73.156;2022-12-07T15:01:54;78.00;;;61.00;;
63379;SDS011;53160;55.014;73.156;2022-12-07T15:04:20;73.40;;;53.20;;
63379;SDS011;53160;55.014;73.156;2022-12-07T15:06:57;80.80;;;58.80;;
63379;SDS011;53160;55.014;73.156;2022-12-07T15:09:23;69.20;;;51.60;;
63379;SDS011;53160;55.014;73.156;2022-12-07T15:11:49;85.00;;;61.00;;
63379;SDS011;53160;55.014;73.156;2022-12-07T15:14:15;82.50;;;63.75;;
63379;SDS011;53160;55.014;73.156;2022-12-07T15:16:42;83.60;;;60.40;;
63379;SDS011;53160;55.014;73.156;2022-12-07T15:19:10;89.00;;;63.00;;
63379;SDS011;53160;55.014;73.156;2022-12-07T15:21:37;78.60;;;57.60;;
63379;SDS011;53160;55.014;73.156;2022-12-07T15:24:13;79.00;;;60.00;;
63379;SDS011;53160;55.014;73.156;2022-12-07T15:26:39;80.20;;;59.60;;
63379;SDS011;53160;55.014;73.156;2022-12-07T15:29:11;81.00;;;58.40;;
63379;SDS011;53160;55.014;73.156;2022-12-07T15:31:37;81.00;;;56.00;;
63379;SDS011;53160;55.014;73.156;2022-12-07T15:34:08;70.00;;;54.25;;
63379;SDS011;53160;55.014;73.156;2022-12-07T15:36:34;77.60;;;49.20;;
63379;SDS011;53160;55.014;73.156;2022-12-07T15:39:00;80.00;;;58.50;;
63379;SDS011;53160;55.014;73.156;2022-12-07T15:41:27;81.50;;;58.50;;
63379;SDS011;53160;55.014;73.156;2022-12-07T15:43:53;78.60;;;56.60;;
63379;SDS011;53160;55.014;73.156;2022-12-07T15:46:47;67.80;;;44.80;;
63379;SDS011;53160;55.014;73.156;2022-12-07T15:49:18;56.75;;;48.00;;
63379;SDS011;53160;55.014;73.156;2022-12-07T15:51:45;65.75;;;51.75;;
63379;SDS011;53160;55.014;73.156;2022-12-07T15:54:27;73.25;;;53.25;;
63379;SDS011;53160;55.014;73.156;2022-12-07T15:56:58;65.60;;;50.00;;
63379;SDS011;53160;55.014;73.156;2022-12-07T15:59:25;75.00;;;54.25;;
63379;SDS011;53160;55.014;73.156;2022-12-07T16:01:51;84.75;;;62.75;;
63379;SDS011;53160;55.014;73.156;2022-12-07T16:04:23;78.50;;;57.75;;
63379;SDS011;53160;55.014;73.156;2022-12-07T16:06:49;64.00;;;45.75;;
63379;SDS011;53160;55.014;73.156;2022-12-07T16:09:21;57.50;;;43.75;;
63379;SDS011;53160;55.014;73.156;2022-12-07T16:11:48;73.60;;;53.20;;
63379;SDS011;53160;55.014;73.156;2022-12-07T16:14:15;77.75;;;56.50;;
63379;SDS011;53160;55.014;73.156;2022-12-07T16:16:42;64.60;;;47.20;;
63379;SDS011;53160;55.014;73.156;2022-12-07T16:19:18;69.50;;;49.25;;
63379;SDS011;53160;55.014;73.156;2022-12-07T16:21:44;77.00;;;56.33;;
63379;SDS011;53160;55.014;73.156;2022-12-07T16:24:12;76.75;;;51.50;;
63379;SDS011;53160;55.014;73.156;2022-12-07T16:26:40;74.50;;;52.50;;
63379;SDS011;53160;55.014;73.156;2022-12-07T16:29:17;66.00;;;44.00;;